createdAt,value
2019-02-11T09:49:28.940Z,6773.76
2019-02-11T09:50:29.462Z,6266.88
2019-02-11T09:51:37.292Z,5898.24
2019-02-11T09:52:30.525Z,7096.32
2019-02-11T09:53:31.754Z,9722.88
2019-02-11T09:54:31.467Z,12349.44
2019-02-11T09:55:32.897Z,13363.20
2019-02-11T09:56:33.382Z,10967.04
2019-02-11T09:57:33.135Z,10506.24
2019-02-11T09:58:34.171Z,9815.04
2019-02-11T09:59:34.699Z,7787.52
2019-02-11T10:00:34.224Z,5414.40
2019-02-11T10:01:34.831Z,5230.08
2019-02-11T10:02:36.284Z,4930.56
2019-02-11T10:03:36.800Z,3663.36
2019-02-11T10:04:37.317Z,3133.44
2019-02-11T10:05:38.276Z,2799.36
2019-02-11T10:06:38.908Z,2626.56
2019-02-11T10:07:39.480Z,2373.12
2019-02-11T10:08:39.909Z,2511.36
2019-02-11T10:09:40.399Z,2545.92
2019-02-11T10:10:40.637Z,2937.60
2019-02-11T10:11:41.220Z,3202.56
2019-02-11T10:12:42.024Z,2937.60
2019-02-11T10:13:42.092Z,2949.12
2019-02-11T10:14:42.760Z,2903.04
2019-02-11T10:15:43.362Z,3893.76
2019-02-11T10:16:43.857Z,4216.32
2019-02-11T10:17:44.395Z,3340.80
2019-02-11T10:18:44.983Z,2914.56
2019-02-11T10:19:45.753Z,3456.00
2019-02-11T10:20:46.618Z,4400.64
2019-02-11T10:21:47.455Z,4239.36
2019-02-11T10:22:47.073Z,3202.56
2019-02-11T10:23:48.782Z,3179.52
2019-02-11T10:24:48.864Z,4262.40
2019-02-11T10:25:49.449Z,6266.88
2019-02-11T10:26:52.400Z,7925.76
2019-02-11T10:27:49.220Z,6497.28
2019-02-11T10:28:49.739Z,5644.80
2019-02-11T10:29:51.487Z,5391.36
2019-02-11T10:30:59.415Z,5506.56
2019-02-11T10:31:51.805Z,5483.52
2019-02-11T10:33:00.164Z,5391.36
2019-02-11T10:33:53.472Z,4907.52
2019-02-11T10:34:54.721Z,5207.04
2019-02-11T10:35:54.351Z,5898.24
2019-02-11T10:36:54.453Z,5898.24
2019-02-11T10:37:55.117Z,4746.24
2019-02-11T10:38:58.312Z,3548.16
2019-02-11T10:39:56.157Z,3548.16
2019-02-11T10:40:59.171Z,4101.12
2019-02-11T10:42:00.414Z,3985.92
2019-02-11T10:42:58.675Z,3456.00
2019-02-11T10:43:59.328Z,2972.16
2019-02-11T10:45:00.879Z,3294.72
2019-02-11T10:46:01.770Z,4239.36
2019-02-11T10:47:01.880Z,6359.04
2019-02-11T10:48:02.478Z,8248.32
2019-02-11T10:49:03.159Z,9400.32
2019-02-11T10:50:02.737Z,10183.68
2019-02-11T10:51:04.598Z,12072.96
2019-02-11T10:51:16.193Z,12533.76
2019-02-11T10:52:23.181Z,13363.20
2019-02-11T10:53:17.971Z,10644.48
2019-02-11T10:54:17.723Z,10782.72
2019-02-11T10:55:19.604Z,11473.92
2019-02-11T10:56:21.824Z,12625.92
2019-02-11T10:57:19.101Z,12533.76
2019-02-11T10:58:21.821Z,12902.40
2019-02-11T10:59:21.381Z,27463.68
2019-02-11T11:00:20.446Z,25067.52
2019-02-11T11:01:21.075Z,22210.56
2019-02-11T11:02:22.835Z,25804.80
2019-02-11T11:03:23.422Z,12072.96
2019-02-11T11:04:24.176Z,11888.64
2019-02-11T11:05:24.376Z,10045.44
2019-02-11T11:06:25.109Z,9262.08
2019-02-11T11:07:24.805Z,8985.60
2019-02-11T11:08:26.328Z,10275.84
2019-02-11T11:09:26.926Z,11151.36
2019-02-11T11:10:27.299Z,17879.04
2019-02-11T11:11:27.703Z,8801.28
2019-02-11T11:12:28.613Z,8064.00
2019-02-11T11:13:28.528Z,9169.92
2019-02-11T11:14:28.986Z,9630.72
2019-02-11T11:15:31.007Z,8616.96
2019-02-11T11:16:30.003Z,6451.20
2019-02-11T11:17:30.064Z,5644.80
2019-02-11T11:18:34.389Z,5898.24
2019-02-11T11:19:31.216Z,5944.32
2019-02-11T11:20:42.744Z,6082.56
2019-02-11T11:21:32.289Z,6359.04
2019-02-11T11:22:32.943Z,5829.12
2019-02-11T11:23:33.732Z,4976.64
2019-02-11T11:24:37.201Z,5483.52
2019-02-11T11:25:37.233Z,11888.64
2019-02-11T11:26:35.113Z,9216.00
2019-02-11T11:27:35.206Z,8755.20
2019-02-11T11:28:39.006Z,7418.88
2019-02-11T11:29:43.225Z,7787.52
2019-02-11T11:30:45.587Z,8847.36
2019-02-11T11:31:36.607Z,8248.32
2019-02-11T11:32:37.031Z,8985.60
2019-02-11T11:33:37.853Z,9815.04
2019-02-11T11:34:38.888Z,9077.76
2019-02-11T11:35:39.139Z,9630.72
2019-02-11T11:36:40.143Z,11980.80
2019-02-11T11:37:40.590Z,11473.92
2019-02-11T11:38:41.493Z,8939.52
2019-02-11T11:39:43.483Z,8432.64
2019-02-11T11:40:43.809Z,8709.12
2019-02-11T11:41:44.098Z,7511.04
2019-02-11T11:42:44.853Z,5829.12
2019-02-11T11:43:44.267Z,7234.56
2019-02-11T11:44:45.763Z,10275.84
2019-02-11T11:45:45.496Z,11381.76
2019-02-11T11:46:47.306Z,10690.56
2019-02-11T11:47:46.385Z,9308.16
2019-02-11T11:48:47.044Z,9446.40
2019-02-11T11:49:47.477Z,10368.00
2019-02-11T11:50:48.777Z,11566.08
2019-02-11T11:51:49.367Z,14284.80
2019-02-11T11:52:50.096Z,11612.16
2019-02-11T11:53:49.342Z,19445.76
2019-02-11T11:54:50.282Z,11980.80
2019-02-11T11:55:50.507Z,11658.24
2019-02-11T11:56:51.008Z,11704.32
2019-02-11T11:57:51.573Z,28385.28
2019-02-11T11:58:53.446Z,27095.04
2019-02-11T11:59:52.482Z,15482.88
2019-02-11T12:00:54.259Z,20828.16
2019-02-11T12:01:53.090Z,19261.44
2019-02-11T12:03:01.716Z,16128.00
2019-02-11T12:03:54.262Z,20367.36
2019-02-11T12:04:55.095Z,22026.24
2019-02-11T12:05:55.234Z,25804.80
2019-02-11T12:06:08.705Z,25251.84
2019-02-11T12:07:09.911Z,10920.96
2019-02-11T12:08:09.913Z,10275.84
2019-02-11T12:09:11.385Z,8386.56
2019-02-11T12:10:10.374Z,23040.00
2019-02-11T12:11:12.355Z,20459.52
2019-02-11T12:12:13.183Z,8248.32
2019-02-11T12:13:22.695Z,19353.60
2019-02-11T12:14:13.122Z,17879.04
2019-02-11T12:15:13.328Z,14929.92
2019-02-11T12:16:13.563Z,23040.00
2019-02-11T12:17:14.113Z,20459.52
2019-02-11T12:18:14.772Z,16312.32
2019-02-11T12:19:15.301Z,19169.28
2019-02-11T12:20:15.297Z,18800.64
2019-02-11T12:21:15.738Z,9031.68
2019-02-11T12:22:16.483Z,9861.12
2019-02-11T12:23:16.823Z,9216.00
2019-02-11T12:24:18.129Z,9446.40
2019-02-11T12:25:17.998Z,14929.92
2019-02-11T12:26:21.492Z,8248.32
2019-02-11T12:27:19.583Z,9907.20
2019-02-11T12:28:19.632Z,12165.12
2019-02-11T12:29:20.209Z,14837.76
2019-02-11T12:30:29.889Z,15206.40
2019-02-11T12:31:21.899Z,13363.20
2019-02-11T12:32:21.614Z,15759.36
2019-02-11T12:33:23.496Z,16128.00
2019-02-11T12:34:23.441Z,12257.28
2019-02-11T12:36:25.116Z,11427.84
2019-02-11T12:37:25.235Z,8386.56
